TFM - Tactical Decision Aid
ID: Runway Winds: CIG/VIS Threshold:

KLAS - Las Vegas/McCarran I, NV, US

Updated at: 0223 UTC 12 May 2021
Latest TAF at: 2320 UTC 11 May 2021

TAF Board

Time0156Z 12/03Z 12/04Z 12/05Z 12/06Z 12/07Z 12/08Z 12/09Z 12/10Z 12/11Z 12/12Z 12/13Z 12/14Z 12/15Z>>
Type OBS PRVL PRVL PRVL PRVL PRVL PRVL PRVL PRVL PRVL PRVL PRVL PRVL PRVL
VIS 10 >6 >6 >6 >6 >6 >6 >6 >6 >6 >6 >6 >6 >6
CIG -- -- -- -- -- -- -- -- -- -- -- -- -- --
Cover CLR FEW SKC SKC SKC SKC SKC SKC SKC SKC SKC SKC SKC SKC
FltCat VFR VFR VFR VFR VFR VFR VFR VFR VFR VFR VFR VFR VFR VFR
WX -- -- -- -- -- -- -- -- -- -- -- -- -- --
WDir 350 60 220 220 220 220 220 220 220 220 220 220 VRB VRB
WSpd 7 6 6 6 6 6 6 6 6 6 6 6 5 5
WGst -- -- -- -- -- -- -- -- -- -- -- -- -- --

TDA Impact Legend

  None Marginal Slight Moderate High
Visibility (sm) >5 3≤X≤5 1≤X<3 0.5≤X<1 <0.5
Ceiling (100 ft) >30 10≤X≤30 4≤X<10 2≤X<4 <2
Wind Speed (kt) <15 15≤X<25 25≤X<30 ≥30
Wind Gust (kt) <15 15≤X<25 25≤X<35 ≥35
Weather No Wx Reported VCTS -TS,-FZRA TS,FZRA +TS,+FZRA
TAF
KLAS 112320Z 1200/1306 06006KT P6SM FEW200
  FM120400 22006KT P6SM SKC
  FM121400 VRB05KT P6SM SKC
  FM121700 05007KT P6SM SKC
  FM122300 12007KT P6SM SKC
  FM130400 22005KT P6SM SKC


METAR
KLAS 120156Z 35007KT 10SM CLR 29/M09 A2988 RMK AO2 SLP096 T02941089
KLAS 120056Z 36003KT 10SM CLR 30/M09 A2988 RMK AO2 SLP096 T03001089
KLAS 112356Z 00000KT 10SM CLR 29/M09 A2989 RMK AO2 SLP100 T02941094 10306 20256 56021
KLAS 112256Z 00000KT 10SM CLR 29/M09 A2990 RMK AO2 SLP104 T02941094

Radar Display
Forecast Discussion